Time;durP1;ratioP1;P1;durP2;ratioP2;P2;SDS_P1;SDS_P2;PMS_P1;PMS_P2;Temp;Humidity;BMP_temperature;BMP_pressure;BME280_temperature;BME280_humidity;BME280_pressure;Samples;Min_cycle;Max_cycle;Signal;HPM_P1;HPM_P2
2023/11/06 00:00:18;;;;;;;8.93;2.05;;;;;;;-146.27;89.71;83428.91;5029760;28;20033;-68
2023/11/06 00:02:45;;;;;;;12.82;1.88;;;;;;;-146.27;90.37;83457.03;5042703;28;20071;-67
2023/11/06 00:05:11;;;;;;;12.27;2.22;;;;;;;-146.27;90.50;83400.78;5037075;28;20116;-67
2023/11/06 00:07:37;;;;;;;5.80;1.50;;;;;;;-146.27;90.77;83428.91;5031430;28;20059;-67
2023/11/06 00:10:03;;;;;;;13.07;2.30;;;;;;;-146.27;90.18;83404.78;5046814;28;20017;-68
2023/11/06 00:12:30;;;;;;;8.50;1.98;;;;;;;-146.27;91.29;83440.94;5048654;28;20048;-70
2023/11/06 00:14:56;;;;;;;5.55;1.65;;;;;;;-146.27;90.41;83380.69;5045484;28;20028;-68
2023/11/06 00:17:22;;;;;;;17.27;2.70;;;;;;;-146.27;90.00;83344.50;5041899;28;20045;-69
2023/11/06 00:19:48;;;;;;;13.40;2.90;;;;;;;-146.27;90.04;83392.72;5041552;28;20547;-68
2023/11/06 00:22:14;;;;;;;9.07;2.65;;;;;;;-146.27;90.32;83380.69;5029765;28;20029;-68
2023/11/06 00:24:39;;;;;;;15.13;3.15;;;;;;;-146.27;89.89;83366.59;5029902;28;20033;-68
2023/11/06 00:27:05;;;;;;;11.60;2.75;;;;;;;-146.27;90.56;83430.91;5029469;28;20461;-68
2023/11/06 00:29:30;;;;;;;13.60;2.55;;;;;;;-146.27;90.40;83400.78;5029954;28;20045;-69
2023/11/06 00:31:56;;;;;;;15.77;2.90;;;;;;;-146.27;90.29;83400.78;5029807;28;20132;-67
2023/11/06 00:34:21;;;;;;;10.32;2.85;;;;;;;-146.27;91.01;83426.88;5029840;28;20057;-67
2023/11/06 00:36:48;;;;;;;11.18;2.13;;;;;;;-146.27;91.25;83394.75;5029495;28;20040;-68
2023/11/06 00:39:13;;;;;;;9.63;1.73;;;;;;;-146.27;91.59;83489.19;5029037;28;20097;-67
2023/11/06 00:41:40;;;;;;;8.45;1.60;;;;;;;-146.27;91.55;83444.97;5029355;28;20101;-67
2023/11/06 00:44:06;;;;;;;14.02;1.95;;;;;;;-146.27;90.62;83380.69;5029644;28;20033;-67
2023/11/06 00:46:32;;;;;;;10.25;2.08;;;;;;;-146.27;91.07;83444.97;5029916;28;20076;-67
2023/11/06 00:48:57;;;;;;;7.93;1.70;;;;;;;-146.27;91.66;83493.19;5029631;28;20547;-68
2023/11/06 00:51:22;;;;;;;8.63;1.83;;;;;;;-146.27;90.85;83509.28;5029798;28;20025;-68
2023/11/06 00:53:47;;;;;;;9.93;1.90;;;;;;;-146.27;90.43;83426.88;5029410;28;20017;-67
2023/11/06 00:56:13;;;;;;;6.20;1.27;;;;;;;-146.27;90.45;83453.00;5027485;28;20618;-67
2023/11/06 00:58:38;;;;;;;8.57;1.63;;;;;;;-146.27;91.58;83457.03;5025237;28;20021;-67
2023/11/06 01:01:04;;;;;;;9.38;1.20;;;;;;;-146.27;91.31;83455.03;5028435;28;20045;-68
2023/11/06 01:03:31;;;;;;;11.88;1.23;;;;;;;-146.27;91.24;83436.94;5029291;28;20493;-67
2023/11/06 01:05:58;;;;;;;5.95;1.20;;;;;;;-146.27;90.67;83416.84;5032443;28;20044;-68
2023/11/06 01:08:24;;;;;;;6.72;0.95;;;;;;;-146.27;91.18;83469.09;5033075;28;20060;-67
2023/11/06 01:10:49;;;;;;;10.43;1.60;;;;;;;-146.27;91.52;83493.19;5025149;28;20072;-68
2023/11/06 01:13:15;;;;;;;7.63;1.48;;;;;;;-146.27;91.89;83469.09;5024486;28;20017;-67
2023/11/06 01:15:42;;;;;;;6.65;2.17;;;;;;;-146.27;92.04;83503.25;5024270;28;20091;-66
2023/11/06 01:18:07;;;;;;;3.72;1.55;;;;;;;-146.27;91.34;83461.06;5032840;28;20493;-68
2023/11/06 01:20:33;;;;;;;7.55;1.50;;;;;;;-146.27;91.04;83428.91;5032827;28;20464;-67
2023/11/06 01:22:59;;;;;;;13.90;1.80;;;;;;;-146.27;91.39;83473.09;5031406;28;20025;-68
2023/11/06 01:25:24;;;;;;;10.32;2.40;;;;;;;-146.27;91.46;83469.09;5032552;28;20430;-68
2023/11/06 01:27:50;;;;;;;7.63;1.92;;;;;;;-146.27;90.89;83428.91;5033726;28;20030;-69
2023/11/06 01:30:15;;;;;;;8.82;1.90;;;;;;;-146.27;91.30;83422.88;5044388;28;20094;-68
2023/11/06 01:32:40;;;;;;;12.25;2.63;;;;;;;-146.27;91.99;83461.06;5039021;28;20025;-68
2023/11/06 01:35:06;;;;;;;12.90;2.42;;;;;;;-146.27;91.30;83396.75;5048592;28;20029;-66
2023/11/06 01:37:32;;;;;;;4.43;1.65;;;;;;;-146.27;90.61;83422.88;5050370;28;20143;-69
2023/11/06 01:39:57;;;;;;;8.95;2.22;;;;;;;-146.27;90.58;83402.78;5047700;28;20033;-69
2023/11/06 01:42:22;;;;;;;7.68;1.77;;;;;;;-146.27;91.71;83505.25;5040519;28;20025;-70
2023/11/06 01:44:48;;;;;;;10.30;1.90;;;;;;;-146.27;91.29;83453.00;5034271;28;20059;-69
2023/11/06 01:47:14;;;;;;;5.07;1.85;;;;;;;-146.27;91.02;83463.06;5041929;28;20482;-69
2023/11/06 01:49:40;;;;;;;5.00;1.40;;;;;;;-146.27;90.88;83442.97;5043153;28;20033;-69
2023/11/06 01:52:10;;;;;;;10.80;2.45;;;;;;;-146.27;90.98;83432.91;5047916;28;20029;-69
2023/11/06 01:54:36;;;;;;;9.35;2.17;;;;;;;-146.27;90.73;83440.94;5047944;28;20025;-69
2023/11/06 01:57:03;;;;;;;9.65;2.00;;;;;;;-146.27;90.40;83467.06;5043815;28;20021;-69
2023/11/06 01:59:29;;;;;;;3.70;1.67;;;;;;;-146.27;92.33;83537.41;5032984;28;20079;-69
2023/11/06 02:02:01;;;;;;;5.97;1.80;;;;;;;-146.27;91.33;83459.03;5032024;28;20037;-69
2023/11/06 02:04:29;;;;;;;10.02;1.92;;;;;;;-146.27;90.69;83440.94;5028385;28;20033;-69
2023/11/06 02:06:54;;;;;;;14.38;2.17;;;;;;;-146.27;90.61;83519.31;5027578;28;20108;-69
2023/11/06 02:09:21;;;;;;;10.52;2.50;;;;;;;-146.27;91.43;83499.22;5031777;28;20635;-69
2023/11/06 02:11:47;;;;;;;13.77;2.88;;;;;;;-146.27;91.45;83428.91;5030340;28;20489;-70
2023/11/06 02:14:12;;;;;;;14.18;2.70;;;;;;;-146.27;91.34;83483.16;5031919;28;20032;-70
2023/11/06 02:16:37;;;;;;;8.45;2.30;;;;;;;-146.27;91.37;83444.97;5030862;28;20056;-69
2023/11/06 02:19:03;;;;;;;7.78;2.33;;;;;;;-146.27;90.29;83446.97;5027938;28;20045;-69
2023/11/06 02:21:28;;;;;;;8.45;2.22;;;;;;;-146.27;90.61;83461.06;5028256;28;20029;-69
2023/11/06 02:23:55;;;;;;;4.15;2.00;;;;;;;-146.27;91.53;83471.09;5031636;28;20029;-69
2023/11/06 02:26:21;;;;;;;15.77;2.20;;;;;;;-146.27;91.80;83513.28;5031138;28;20029;-70
2023/11/06 02:28:51;;;;;;;12.35;2.17;;;;;;;-146.27;90.45;83406.78;5031467;28;20060;-70
2023/11/06 02:31:17;;;;;;;10.70;2.00;;;;;;;-146.27;91.06;83467.06;5031696;28;20025;-69
2023/11/06 02:33:42;;;;;;;8.98;1.83;;;;;;;-146.27;91.12;83483.16;5031759;28;20183;-69
2023/11/06 02:36:08;;;;;;;12.02;1.70;;;;;;;-146.27;90.57;83410.81;5039926;28;20025;-70
2023/11/06 02:38:34;;;;;;;8.30;1.60;;;;;;;-146.27;90.02;83475.13;5030699;28;20040;-68
2023/11/06 02:41:00;;;;;;;8.70;1.77;;;;;;;-146.27;90.88;83453.00;5035469;28;20037;-70
2023/11/06 02:43:25;;;;;;;9.85;1.80;;;;;;;-146.27;90.10;83420.88;5026994;28;20057;-70
2023/11/06 02:45:50;;;;;;;14.60;2.05;;;;;;;-146.27;89.75;83457.03;5040266;28;20103;-69
2023/11/06 02:48:16;;;;;;;12.40;1.63;;;;;;;-146.27;90.69;83525.34;5045099;28;20621;-69
2023/11/06 02:50:41;;;;;;;7.97;1.52;;;;;;;-146.27;91.23;83497.22;5041785;28;20499;-69
2023/11/06 02:53:06;;;;;;;16.15;2.13;;;;;;;-146.27;90.85;83446.97;5031563;28;20393;-69
2023/11/06 02:55:32;;;;;;;4.57;1.48;;;;;;;-146.27;90.98;83521.34;5030886;28;20037;-69
2023/11/06 02:57:58;;;;;;;6.90;1.60;;;;;;;-146.27;91.54;83573.56;5034731;28;20057;-70
2023/11/06 03:00:23;;;;;;;11.48;1.98;;;;;;;-146.27;92.06;83553.47;5034537;28;20033;-69
2023/11/06 03:02:49;;;;;;;14.07;1.63;;;;;;;-146.27;91.23;83513.28;5036363;28;20018;-70
2023/11/06 03:05:14;;;;;;;5.88;1.60;;;;;;;-146.27;91.34;83581.59;5032406;28;20538;-70
2023/11/06 03:07:40;;;;;;;5.28;1.83;;;;;;;-146.27;91.69;83527.34;5018061;28;20025;-70
2023/11/06 03:10:06;;;;;;;14.13;1.75;;;;;;;-146.27;90.91;83509.28;5034953;28;20022;-69
2023/11/06 03:12:31;;;;;;;13.75;1.92;;;;;;;-146.27;90.28;83489.19;5019392;28;20036;-70
2023/11/06 03:14:58;;;;;;;10.23;2.00;;;;;;;-146.27;90.23;83489.19;5036379;28;20366;-69
2023/11/06 03:17:23;;;;;;;4.82;1.58;;;;;;;-146.27;90.04;83487.16;5049033;28;20100;-70
2023/11/06 03:19:50;;;;;;;9.13;1.60;;;;;;;-146.27;90.30;83513.28;5031925;28;20500;-70
2023/11/06 03:22:15;;;;;;;9.98;1.58;;;;;;;-146.27;91.76;83623.81;5025747;28;20034;-70
2023/11/06 03:24:41;;;;;;;10.27;2.03;;;;;;;-146.27;91.49;83571.56;5033984;28;20032;-70
2023/11/06 03:27:07;;;;;;;13.55;2.03;;;;;;;-146.27;91.45;83571.56;5030909;28;20076;-70
2023/11/06 03:29:32;;;;;;;15.00;2.22;;;;;;;-146.27;90.72;83521.34;5036262;28;20056;-69
2023/11/06 03:31:58;;;;;;;12.48;2.13;;;;;;;-146.27;90.96;83575.59;5026881;28;20433;-70
2023/11/06 03:34:25;;;;;;;12.20;1.85;;;;;;;-146.27;91.78;83563.53;5027792;28;20026;-70
2023/11/06 03:36:50;;;;;;;5.25;1.67;;;;;;;-146.27;91.36;83553.47;5020763;28;20146;-69
2023/11/06 03:39:16;;;;;;;9.77;3.15;;;;;;;-146.27;90.90;83525.34;5044199;28;20033;-70
2023/11/06 03:41:43;;;;;;;13.82;2.00;;;;;;;-146.27;91.71;83581.59;5047725;28;20056;-70
2023/11/06 03:44:10;;;;;;;11.63;2.40;;;;;;;-146.27;91.78;83537.41;5043480;28;20025;-70
2023/11/06 03:46:35;;;;;;;11.18;2.00;;;;;;;-146.27;90.43;83521.34;5040448;28;20033;-70
2023/11/06 03:49:01;;;;;;;9.77;1.67;;;;;;;-146.27;90.25;83539.41;5038551;28;20029;-70
2023/11/06 03:51:26;;;;;;;7.78;2.15;;;;;;;-146.27;90.18;83533.38;5044751;28;20479;-69
2023/11/06 03:53:52;;;;;;;7.82;2.00;;;;;;;-146.27;90.03;83541.41;5044960;28;20033;-69
2023/11/06 03:56:17;;;;;;;7.70;1.92;;;;;;;-146.27;90.18;83545.44;5047532;28;20389;-68
2023/11/06 03:58:43;;;;;;;10.85;2.10;;;;;;;-146.27;90.98;83581.59;5045434;28;20029;-70
2023/11/06 04:01:09;;;;;;;6.55;1.98;;;;;;;-146.27;90.38;83477.13;5038833;28;20029;-70
2023/11/06 04:03:35;;;;;;;3.80;1.75;;;;;;;-146.27;89.33;83453.00;5031393;28;20926;-70
2023/11/06 04:06:02;;;;;;;11.30;2.10;;;;;;;-146.27;90.02;83537.41;5039959;28;20090;-70
2023/11/06 04:08:28;;;;;;;8.20;1.83;;;;;;;-146.27;90.21;83531.38;5031785;28;20044;-69
2023/11/06 04:10:53;;;;;;;13.70;2.22;;;;;;;-146.27;90.29;83547.44;5042304;28;20025;-70
2023/11/06 04:13:19;;;;;;;14.20;1.45;;;;;;;-146.27;91.02;83593.66;5048598;28;20043;-69
2023/11/06 04:15:44;;;;;;;6.40;1.45;;;;;;;-146.27;90.19;83537.41;5031664;28;20025;-70
2023/11/06 04:18:10;;;;;;;7.50;1.33;;;;;;;-146.27;90.27;83553.47;5035292;28;20487;-69
2023/11/06 04:20:35;;;;;;;12.68;1.35;;;;;;;-146.27;90.13;83533.38;5034546;28;20032;-70
2023/11/06 04:23:01;;;;;;;7.05;1.33;;;;;;;-146.27;90.39;83609.75;5042676;28;20527;-70
2023/11/06 04:25:26;;;;;;;9.02;1.35;;;;;;;-146.27;90.18;83563.53;5025613;28;20034;-70
2023/11/06 04:27:52;;;;;;;3.22;1.00;;;;;;;-146.27;89.70;83553.47;5041400;28;20026;-69
2023/11/06 04:30:17;;;;;;;5.68;1.17;;;;;;;-146.27;89.48;83549.47;5025628;28;20110;-70
2023/11/06 04:32:43;;;;;;;4.55;1.10;;;;;;;-146.27;89.67;83565.53;5039197;28;20033;-70
2023/11/06 04:35:08;;;;;;;7.50;1.08;;;;;;;-146.27;89.14;83589.66;5032622;28;20022;-69
2023/11/06 04:37:36;;;;;;;5.60;1.10;;;;;;;-146.27;89.23;83583.63;5035477;28;20108;-70
2023/11/06 04:40:03;;;;;;;8.40;1.55;;;;;;;-146.27;89.34;83623.81;5031580;28;20096;-69
2023/11/06 04:42:28;;;;;;;8.63;1.10;;;;;;;-146.27;88.48;83583.63;5047557;28;20052;-68
2023/11/06 04:44:54;;;;;;;7.18;1.30;;;;;;;-146.27;88.94;83593.66;5037662;28;20025;-70
2023/11/06 04:47:19;;;;;;;5.13;0.90;;;;;;;-146.27;88.75;83559.50;5029050;28;20473;-70
2023/11/06 04:49:44;;;;;;;9.52;1.73;;;;;;;-146.27;89.33;83589.66;5045544;28;20848;-70
2023/11/06 04:52:10;;;;;;;13.40;1.98;;;;;;;-146.27;89.15;83603.72;5032746;28;20083;-70
2023/11/06 04:54:35;;;;;;;3.03;1.05;;;;;;;-146.27;88.48;83569.56;5030211;28;21817;-69
2023/11/06 04:57:01;;;;;;;11.95;1.17;;;;;;;-146.27;88.54;83601.72;5024095;28;20033;-70
2023/11/06 04:59:27;;;;;;;13.57;2.00;;;;;;;-146.27;88.06;83597.69;5032344;28;20025;-70
2023/11/06 05:01:52;;;;;;;8.90;1.00;;;;;;;-146.27;88.06;83573.56;5033881;28;20760;-69
2023/11/06 05:04:18;;;;;;;7.00;1.02;;;;;;;-146.27;87.54;83541.41;5040954;28;20104;-71
2023/11/06 05:06:43;;;;;;;6.78;0.90;;;;;;;-146.27;87.48;83589.66;5033719;28;20053;-70
2023/11/06 05:09:10;;;;;;;7.88;1.45;;;;;;;-146.27;87.64;83589.66;5028539;28;20018;-69
2023/11/06 05:11:36;;;;;;;3.90;0.73;;;;;;;-146.27;87.64;83591.66;5029281;28;20037;-70
2023/11/06 05:14:02;;;;;;;1.90;1.08;;;;;;;-146.27;87.16;83541.41;5032653;28;20052;-69
2023/11/06 05:16:28;;;;;;;8.50;1.00;;;;;;;-146.27;87.24;83551.47;5031116;28;20060;-69
2023/11/06 05:18:54;;;;;;;13.35;1.30;;;;;;;-146.27;87.47;83595.69;5025290;28;20060;-70
2023/11/06 05:21:26;;;;;;;7.75;1.02;;;;;;;-146.27;87.72;83549.47;5034598;28;20450;-70
2023/11/06 05:23:52;;;;;;;11.68;1.23;;;;;;;-146.27;87.60;83587.63;5049317;28;20492;-70
2023/11/06 05:26:17;;;;;;;15.18;3.55;;;;;;;-146.27;87.58;83563.53;5036309;28;20135;-70
2023/11/06 05:28:43;;;;;;;5.13;0.98;;;;;;;-146.27;87.70;83561.53;5023545;28;20030;-70
2023/11/06 05:31:09;;;;;;;7.07;1.00;;;;;;;-146.27;88.46;83601.72;5029619;28;20099;-70
2023/11/06 05:33:35;;;;;;;8.35;1.00;;;;;;;-146.27;87.78;83573.56;5035760;28;20068;-70
2023/11/06 05:36:01;;;;;;;7.35;1.00;;;;;;;-146.27;87.56;83581.59;5025870;28;20034;-69
2023/11/06 05:38:26;;;;;;;9.25;2.42;;;;;;;-146.27;87.70;83587.63;5040706;28;20031;-69
2023/11/06 05:40:51;;;;;;;4.68;1.23;;;;;;;-146.27;87.63;83561.53;5038510;28;20482;-70
2023/11/06 05:43:17;;;;;;;6.82;1.08;;;;;;;-146.27;87.64;83563.53;5045195;28;20529;-70
2023/11/06 05:45:42;;;;;;;5.40;1.33;;;;;;;-146.27;87.00;83541.41;5043105;28;20422;-70
2023/11/06 05:48:07;;;;;;;5.90;1.20;;;;;;;-146.27;87.47;83565.53;5040017;28;20414;-70
2023/11/06 05:50:34;;;;;;;9.40;1.92;;;;;;;-146.27;87.62;83561.53;5022865;28;20654;-70
2023/11/06 05:53:00;;;;;;;5.28;1.33;;;;;;;-146.27;87.43;83545.44;5015896;28;20033;-70
2023/11/06 05:55:25;;;;;;;9.35;1.00;;;;;;;-146.27;87.29;83595.69;5038752;28;20534;-70
2023/11/06 05:57:50;;;;;;;10.63;2.05;;;;;;;-146.27;87.17;83599.69;5017973;28;20101;-70
2023/11/06 06:00:16;;;;;;;8.40;1.85;;;;;;;-146.27;86.83;83541.41;5032916;28;20612;-69
2023/11/06 06:02:41;;;;;;;8.25;1.67;;;;;;;-146.27;86.78;83553.47;5040328;28;20504;-70
2023/11/06 06:05:07;;;;;;;6.93;1.92;;;;;;;-146.27;85.37;83515.31;5030321;28;20488;-70
2023/11/06 06:07:33;;;;;;;6.15;1.30;;;;;;;-146.27;86.61;83525.34;5032226;28;20064;-70
2023/11/06 06:09:58;;;;;;;10.38;1.42;;;;;;;-146.27;86.74;83537.41;5042170;28;20050;-70
2023/11/06 06:12:23;;;;;;;2.53;1.05;;;;;;;-146.27;86.05;83525.34;5037530;28;20036;-70
2023/11/06 06:14:50;;;;;;;9.35;1.15;;;;;;;-146.27;85.98;83525.34;5037177;28;20029;-70
2023/11/06 06:17:16;;;;;;;9.15;1.45;;;;;;;-146.27;86.54;83565.53;5033063;28;20188;-70
2023/11/06 06:19:41;;;;;;;11.32;1.48;;;;;;;-146.27;87.51;83595.69;5035849;28;20501;-70
2023/11/06 06:22:06;;;;;;;7.30;1.58;;;;;;;-146.27;87.01;83605.72;5036205;28;20593;-70
2023/11/06 06:24:32;;;;;;;6.40;1.63;;;;;;;-146.27;86.45;83533.38;5043062;28;20051;-70
2023/11/06 06:26:57;;;;;;;4.60;0.98;;;;;;;-146.27;86.55;83601.72;5039877;28;20563;-70
2023/11/06 06:29:22;;;;;;;8.80;1.52;;;;;;;-146.27;86.30;83557.50;5035204;28;20473;-70
2023/11/06 06:31:50;;;;;;;6.20;1.30;;;;;;;-146.27;85.75;83525.34;5025451;28;20056;-70
2023/11/06 06:34:17;;;;;;;7.40;1.05;;;;;;;-146.27;85.48;83593.66;5039284;28;20123;-70
2023/11/06 06:36:43;;;;;;;6.85;1.55;;;;;;;-146.27;85.72;83541.41;5034725;28;20037;-70
2023/11/06 06:39:09;;;;;;;5.78;1.38;;;;;;;-146.27;85.50;83531.38;5029442;28;20420;-69
2023/11/06 06:41:34;;;;;;;12.75;1.85;;;;;;;-146.27;86.45;83597.69;5029286;28;20051;-70
2023/11/06 06:43:59;;;;;;;5.72;1.65;;;;;;;-146.27;86.59;83593.66;5026523;28;20086;-70
2023/11/06 06:46:25;;;;;;;7.63;1.33;;;;;;;-146.27;87.35;83666.00;5023130;28;20045;-69
2023/11/06 06:48:50;;;;;;;12.95;1.42;;;;;;;-146.27;86.83;83573.56;5025683;28;20642;-70
2023/11/06 06:51:16;;;;;;;4.85;1.08;;;;;;;-146.27;85.75;83565.53;5029450;28;20548;-70
2023/11/06 06:53:42;;;;;;;6.22;1.52;;;;;;;-146.27;85.18;83517.31;5035310;28;20548;-69
2023/11/06 06:56:08;;;;;;;8.93;1.30;;;;;;;-146.27;85.48;83553.47;5031192;28;20155;-70
2023/11/06 06:58:33;;;;;;;8.80;1.35;;;;;;;-146.27;85.06;83513.28;5040937;28;20112;-70
2023/11/06 07:00:59;;;;;;;5.53;1.35;;;;;;;-146.27;84.72;83497.22;5037233;28;20430;-69
2023/11/06 07:03:24;;;;;;;4.32;1.40;;;;;;;-146.27;84.63;83505.25;5027878;28;20041;-70
2023/11/06 07:05:50;;;;;;;6.55;1.48;;;;;;;-146.27;84.61;83529.38;5028196;28;20033;-70
2023/11/06 07:08:15;;;;;;;11.25;1.67;;;;;;;-146.27;84.54;83541.41;5028908;28;20033;-70
2023/11/06 07:10:40;;;;;;;9.38;1.33;;;;;;;-146.27;83.96;83515.31;5019108;28;20505;-71
2023/11/06 07:13:05;;;;;;;5.43;1.08;;;;;;;-146.27;83.98;83493.19;5010998;28;20475;-71
2023/11/06 07:15:31;;;;;;;7.05;1.33;;;;;;;-146.27;83.33;83545.44;5011164;28;20517;-70
2023/11/06 07:18:01;;;;;;;8.52;1.40;;;;;;;-146.27;84.07;83533.38;5025468;28;20044;-70
2023/11/06 07:20:27;;;;;;;8.38;1.17;;;;;;;-146.27;83.51;83537.41;5026856;28;20025;-70
2023/11/06 07:22:54;;;;;;;7.90;1.35;;;;;;;-146.27;83.01;83473.09;5026653;28;20393;-69
2023/11/06 07:25:20;;;;;;;6.07;0.93;;;;;;;-146.27;82.71;83477.13;5026406;28;20493;-70
2023/11/06 07:27:46;;;;;;;3.75;1.15;;;;;;;-146.27;82.28;83463.06;5026331;28;20064;-70
2023/11/06 07:30:12;;;;;;;10.18;1.00;;;;;;;-146.27;81.94;83519.31;5026167;28;20119;-71
2023/11/06 07:32:37;;;;;;;6.25;0.85;;;;;;;-146.27;81.98;83455.03;5026028;28;20035;-73
2023/11/06 07:35:04;;;;;;;9.73;1.20;;;;;;;-146.27;81.76;83511.28;5024215;28;20030;-70
2023/11/06 07:37:30;;;;;;;8.85;1.00;;;;;;;-146.27;81.67;83465.06;5036965;28;20398;-70
2023/11/06 07:39:56;;;;;;;7.03;1.10;;;;;;;-146.27;81.87;83432.91;5026516;28;20037;-71
2023/11/06 07:42:21;;;;;;;8.75;1.23;;;;;;;-146.27;81.32;83453.00;5027409;28;20022;-70
2023/11/06 07:44:47;;;;;;;1.63;0.82;;;;;;;-146.27;81.43;83497.22;5023581;28;20025;-70
2023/11/06 07:47:13;;;;;;;3.53;0.80;;;;;;;-146.27;81.38;83501.22;5029154;28;20021;-70
2023/11/06 07:49:39;;;;;;;4.13;0.82;;;;;;;-146.27;80.83;83424.88;5028242;28;20028;-71
2023/11/06 07:52:09;;;;;;;6.22;1.20;;;;;;;-146.27;80.49;83432.91;5029624;28;20518;-70
2023/11/06 07:54:41;;;;;;;5.85;1.05;;;;;;;-146.27;81.27;83483.16;5012913;28;20034;-70
2023/11/06 07:57:06;;;;;;;4.03;0.77;;;;;;;-146.27;80.38;83412.81;5029294;28;20032;-70
2023/11/06 07:59:32;;;;;;;4.53;0.77;;;;;;;-146.27;80.79;83465.06;5030457;28;20021;-70
2023/11/06 08:01:59;;;;;;;4.13;0.90;;;;;;;-146.27;80.27;83424.88;5026026;28;20045;-71
2023/11/06 08:04:25;;;;;;;9.95;1.50;;;;;;;-146.27;80.74;83483.16;5028208;28;20041;-69
2023/11/06 08:06:50;;;;;;;5.63;1.00;;;;;;;-146.27;80.99;83451.00;5030019;28;20406;-69
2023/11/06 08:09:16;;;;;;;4.40;0.68;;;;;;;-146.27;81.57;83497.22;5028320;28;20108;-69
2023/11/06 08:11:41;;;;;;;4.85;0.80;;;;;;;-146.27;80.69;83412.81;5029902;28;20021;-71
2023/11/06 08:14:06;;;;;;;2.85;0.73;;;;;;;-146.27;80.67;83416.84;5030121;28;20029;-70
2023/11/06 08:16:32;;;;;;;3.85;1.15;;;;;;;-146.27;80.89;83396.75;5032059;28;20041;-69
2023/11/06 08:18:58;;;;;;;8.30;1.48;;;;;;;-146.27;79.70;83338.47;5021367;28;20497;-70
2023/11/06 08:21:24;;;;;;;7.55;1.85;;;;;;;-146.27;80.40;83400.78;5029729;28;20079;-70
2023/11/06 08:23:49;;;;;;;5.72;1.10;;;;;;;-146.27;81.78;83426.88;5042768;28;20036;-70
2023/11/06 08:26:15;;;;;;;4.53;1.13;;;;;;;-146.27;81.00;83412.81;5033524;28;20025;-69
2023/11/06 08:28:40;;;;;;;4.75;1.00;;;;;;;-146.27;80.99;83362.59;5026806;28;20029;-69
2023/11/06 08:31:05;;;;;;;7.63;1.13;;;;;;;-146.27;80.63;83372.63;5024922;28;20024;-70
2023/11/06 08:33:31;;;;;;;11.02;2.38;;;;;;;-146.27;81.37;83416.84;5043930;28;20227;-69
2023/11/06 08:35:56;;;;;;;2.92;1.42;;;;;;;-146.27;80.70;83380.69;5036989;28;20102;-70
2023/11/06 08:38:21;;;;;;;4.65;1.50;;;;;;;-146.27;80.24;83362.59;5028756;28;20866;-70
2023/11/06 08:40:50;;;;;;;12.95;2.38;;;;;;;-146.27;81.39;83400.78;5022129;28;20726;-68
2023/11/06 08:43:16;;;;;;;9.63;2.53;;;;;;;-146.27;81.05;83344.50;5032849;28;20326;-69
2023/11/06 08:45:41;;;;;;;13.45;1.98;;;;;;;-146.27;80.65;83402.78;5027274;28;20043;-68
2023/11/06 08:48:06;;;;;;;7.10;1.88;;;;;;;-146.27;80.65;83398.75;5027644;28;20048;-69
2023/11/06 08:50:32;;;;;;;8.23;1.80;;;;;;;-146.27;80.27;83356.56;5024966;28;20500;-68
2023/11/06 08:52:57;;;;;;;7.20;1.35;;;;;;;-146.27;80.56;83308.34;5034648;28;20062;-67
2023/11/06 08:55:24;;;;;;;6.78;1.80;;;;;;;-146.27;79.63;83320.41;5034877;28;21753;-68
2023/11/06 08:57:49;;;;;;;9.98;1.88;;;;;;;-146.27;80.10;83312.34;5039339;28;20021;-68
2023/11/06 09:00:15;;;;;;;5.63;1.73;;;;;;;-146.27;79.29;83332.44;5036009;28;20469;-68
2023/11/06 09:02:40;;;;;;;6.05;1.30;;;;;;;-146.27;78.54;83336.47;5036402;28;20038;-68
2023/11/06 09:05:06;;;;;;;9.45;1.20;;;;;;;-146.27;78.14;83340.50;5035985;28;20031;-66
2023/11/06 09:07:31;;;;;;;13.68;1.83;;;;;;;-146.27;77.64;83302.31;5039695;28;20691;-68
2023/11/06 09:09:57;;;;;;;6.30;1.50;;;;;;;-146.27;77.12;83326.44;5035643;28;20017;-70
2023/11/06 09:12:22;;;;;;;5.60;1.33;;;;;;;-146.27;77.01;83262.13;5038499;28;20485;-68
2023/11/06 09:14:48;;;;;;;6.40;1.55;;;;;;;-146.27;76.82;83270.16;5042634;28;20026;-69
2023/11/06 09:17:13;;;;;;;3.47;1.30;;;;;;;-146.27;75.88;83302.31;5037696;28;20053;-68
2023/11/06 09:19:39;;;;;;;13.68;1.20;;;;;;;-146.27;75.37;83199.84;5040420;28;20026;-68
2023/11/06 09:22:04;;;;;;;7.15;1.48;;;;;;;-146.27;76.45;83264.13;5035410;28;20453;-68
2023/11/06 09:24:30;;;;;;;5.68;1.42;;;;;;;-146.27;76.21;83191.81;5028034;28;20025;-67
2023/11/06 09:26:56;;;;;;;10.07;1.10;;;;;;;-146.27;75.08;83179.75;5031278;28;20517;-68
2023/11/06 09:29:22;;;;;;;5.85;1.08;;;;;;;-146.27;73.95;83175.72;5048536;28;20059;-67
2023/11/06 09:31:48;;;;;;;4.80;0.77;;;;;;;-146.27;73.57;83093.34;5047522;28;20021;-68
2023/11/06 09:34:14;;;;;;;5.40;0.60;;;;;;;-146.27;73.23;83123.50;5036656;28;20148;-68
2023/11/06 09:36:39;;;;;;;6.40;1.25;;;;;;;-146.27;72.65;83109.44;5031677;28;20076;-68
2023/11/06 09:39:09;;;;;;;4.25;1.05;;;;;;;-146.27;74.36;83207.88;5035335;28;20025;-68
2023/11/06 09:41:35;;;;;;;7.30;1.30;;;;;;;-146.27;74.67;83227.97;5023254;28;20394;-67
2023/11/06 09:44:00;;;;;;;2.13;0.55;;;;;;;-146.27;74.44;83234.00;5033702;28;20544;-67
2023/11/06 09:46:26;;;;;;;11.23;1.52;;;;;;;-146.27;74.86;83159.66;5026793;28;20026;-67
2023/11/06 09:48:54;;;;;;;8.48;0.90;;;;;;;-146.27;74.82;83232.00;5030093;28;20025;-67
2023/11/06 09:51:23;;;;;;;4.10;1.00;;;;;;;-146.27;75.56;83227.97;5036739;28;20095;-67
2023/11/06 09:53:51;;;;;;;7.68;0.95;;;;;;;-146.27;75.39;83223.94;5031221;28;20104;-69
2023/11/06 09:56:19;;;;;;;7.68;1.15;;;;;;;-146.27;75.88;83232.00;5044530;28;20107;-67
2023/11/06 09:58:45;;;;;;;7.00;0.98;;;;;;;-146.27;76.00;83248.06;5033933;28;20455;-67
2023/11/06 10:01:13;;;;;;;13.25;2.10;;;;;;;-146.27;76.25;83264.13;5030570;28;20105;-70
2023/11/06 10:03:39;;;;;;;6.72;1.33;;;;;;;-146.27;76.56;83229.97;5028929;28;20039;-70
2023/11/06 10:06:07;;;;;;;8.70;1.60;;;;;;;-146.27;76.77;83248.06;5023436;28;20029;-69
2023/11/06 10:08:35;;;;;;;4.43;1.13;;;;;;;-146.27;76.76;83240.03;5026488;28;20052;-70
2023/11/06 10:11:03;;;;;;;5.68;1.30;;;;;;;-146.27;77.38;83244.03;5030608;28;20053;-69
2023/11/06 10:13:29;;;;;;;5.13;1.38;;;;;;;-146.27;76.20;83209.88;5019366;28;20025;-69
2023/11/06 10:15:55;;;;;;;9.00;1.17;;;;;;;-146.27;75.84;83167.69;5017254;28;20063;-69
2023/11/06 10:18:23;;;;;;;18.50;2.20;;;;;;;-146.27;77.74;83260.13;5031653;28;20041;-68
2023/11/06 10:20:50;;;;;;;3.78;0.85;;;;;;;-146.27;78.95;83296.28;5033877;28;20021;-69
2023/11/06 10:23:24;;;;;;;12.20;1.40;;;;;;;-146.27;78.33;83240.03;5041715;28;20029;-68
2023/11/06 10:25:50;;;;;;;6.95;1.70;;;;;;;-146.27;78.21;83240.03;5041229;28;20024;-68
2023/11/06 10:28:17;;;;;;;10.70;1.30;;;;;;;-146.27;77.95;83316.38;5040298;28;20029;-70
2023/11/06 10:30:50;;;;;;;8.27;1.00;;;;;;;-146.27;76.91;83256.09;5048035;28;20020;-68
2023/11/06 10:33:17;;;;;;;5.00;1.47;;;;;;;-146.27;78.02;83366.59;5028149;28;20032;-69
2023/11/06 10:35:42;;;;;;;8.32;0.95;;;;;;;-146.27;77.07;83284.22;5037373;28;20323;-69
2023/11/06 10:38:27;;;;;;;5.25;1.20;;;;;;;-146.27;77.00;83300.31;5037317;28;20072;-69
2023/11/06 10:40:53;;;;;;;6.38;1.02;;;;;;;-146.27;76.66;83276.19;5029034;28;20116;-69
2023/11/06 10:43:19;;;;;;;7.53;1.08;;;;;;;-146.27;76.36;83308.34;5022635;28;20505;-70
2023/11/06 10:45:46;;;;;;;3.22;0.85;;;;;;;-146.27;75.49;83262.13;5045765;28;20039;-68
2023/11/06 10:48:14;;;;;;;6.18;0.55;;;;;;;-146.27;76.31;83306.34;5023507;28;20441;-69
2023/11/06 10:50:42;;;;;;;8.50;1.52;;;;;;;-146.27;74.75;83209.88;5043161;28;20036;-68
2023/11/06 10:53:09;;;;;;;4.97;1.40;;;;;;;-146.27;74.79;83203.88;5030055;28;20018;-68
2023/11/06 10:55:36;;;;;;;6.57;1.10;;;;;;;-146.27;75.52;83197.84;5034918;28;20513;-68
2023/11/06 10:58:03;;;;;;;5.40;1.10;;;;;;;-146.27;75.62;83193.81;5025043;28;20160;-71
2023/11/06 11:00:31;;;;;;;3.28;1.00;;;;;;;-146.27;75.50;83225.97;5032238;28;20032;-69
2023/11/06 11:02:58;;;;;;;8.00;0.80;;;;;;;-146.27;75.92;83268.16;5030459;28;20025;-70
2023/11/06 11:05:27;;;;;;;3.38;1.02;;;;;;;-146.27;76.47;83213.91;5026702;28;20112;-65
2023/11/06 11:07:54;;;;;;;4.22;0.90;;;;;;;-146.27;76.93;83292.28;5033649;28;20024;-65